createdAt,value
2022-10-30T00:02:27.943Z,14.35
2022-10-30T00:04:59.251Z,14.30
2022-10-30T00:07:30.640Z,14.27
2022-10-30T00:10:01.927Z,14.23
2022-10-30T00:12:33.344Z,14.17
2022-10-30T00:15:05.717Z,14.13
2022-10-30T00:17:37.088Z,14.11
2022-10-30T00:20:08.919Z,14.06
2022-10-30T00:22:40.175Z,14.02
2022-10-30T00:25:11.484Z,13.97
2022-10-30T00:27:42.852Z,13.94
2022-10-30T00:30:15.389Z,13.91
2022-10-30T00:32:46.640Z,13.88
2022-10-30T00:35:18.030Z,13.85
2022-10-30T00:37:49.277Z,13.81
2022-10-30T00:40:21.017Z,13.78
2022-10-30T00:42:52.311Z,13.69
2022-10-30T00:45:24.646Z,13.70
2022-10-30T00:48:01.665Z,13.62
2022-10-30T00:50:37.668Z,13.58
2022-10-30T00:53:12.975Z,13.48
2022-10-30T00:55:50.211Z,13.51
2022-10-30T00:58:27.881Z,13.47
2022-10-30T01:01:03.274Z,13.47
2022-10-30T01:03:35.943Z,13.45
2022-10-30T01:06:11.797Z,13.50
2022-10-30T01:08:43.855Z,13.53
2022-10-30T01:11:15.267Z,13.57
2022-10-30T01:13:50.077Z,13.62
2022-10-30T01:16:21.340Z,13.70
2022-10-30T01:19:03.372Z,13.76
2022-10-30T01:22:00.132Z,13.81
2022-10-30T01:24:38.705Z,13.92
2022-10-30T01:28:01.188Z,13.98
2022-10-30T01:30:50.615Z,14.05
2022-10-30T01:33:40.187Z,14.10
2022-10-30T01:36:33.395Z,14.17
2022-10-30T01:39:12.960Z,14.18
2022-10-30T01:41:45.400Z,14.21
2022-10-30T01:44:35.010Z,14.19
2022-10-30T01:47:48.785Z,14.18
2022-10-30T01:50:36.934Z,14.17
2022-10-30T01:53:37.027Z,14.11
2022-10-30T01:56:18.730Z,14.04
2022-10-30T01:59:02.961Z,13.97
2022-10-30T02:01:36.778Z,13.88
2022-10-30T02:04:09.519Z,13.88
2022-10-30T02:06:41.413Z,13.81
2022-10-30T02:09:15.516Z,13.81
2022-10-30T02:11:48.020Z,13.76
2022-10-30T02:14:31.127Z,13.70
2022-10-30T02:17:05.714Z,13.63
2022-10-30T02:19:37.365Z,13.51
2022-10-30T02:22:08.905Z,13.56
2022-10-30T02:24:40.237Z,13.53
2022-10-30T02:27:11.720Z,13.48
2022-10-30T02:29:43.005Z,13.50
2022-10-30T02:32:14.260Z,13.49
2022-10-30T02:34:45.661Z,13.46
2022-10-30T02:37:16.943Z,13.43
2022-10-30T02:39:48.209Z,13.40
2022-10-30T02:42:19.450Z,13.40
2022-10-30T02:44:50.700Z,13.41
2022-10-30T02:47:21.954Z,13.40
2022-10-30T02:49:53.240Z,13.43
2022-10-30T02:52:24.492Z,13.42
2022-10-30T02:54:55.773Z,13.46
2022-10-30T02:57:27.031Z,13.46
2022-10-30T02:59:58.328Z,13.48
2022-10-30T03:02:29.604Z,13.48
2022-10-30T03:05:00.959Z,13.41
2022-10-30T03:07:32.418Z,13.48
2022-10-30T03:10:04.004Z,13.38
2022-10-30T03:12:35.264Z,13.48
2022-10-30T03:15:07.214Z,13.40
2022-10-30T03:17:38.502Z,13.48
2022-10-30T03:20:10.415Z,13.51
2022-10-30T03:22:41.656Z,13.52
2022-10-30T03:25:12.979Z,13.50
2022-10-30T03:27:44.277Z,13.54
2022-10-30T03:30:15.551Z,13.53
2022-10-30T03:32:46.948Z,13.55
2022-10-30T03:35:18.219Z,13.56
2022-10-30T03:37:49.490Z,13.56
2022-10-30T03:40:20.760Z,13.55
2022-10-30T03:42:51.993Z,13.52
2022-10-30T03:45:23.336Z,13.56
2022-10-30T03:47:54.823Z,13.57
2022-10-30T03:50:26.168Z,13.58
2022-10-30T03:52:58.457Z,13.58
2022-10-30T03:55:29.728Z,13.61
2022-10-30T03:58:01.171Z,13.61
2022-10-30T04:00:33.241Z,13.63
2022-10-30T04:03:09.078Z,13.63
2022-10-30T04:05:40.433Z,13.65
2022-10-30T04:08:13.731Z,13.65
2022-10-30T04:10:46.845Z,13.67
2022-10-30T04:13:20.194Z,13.70
2022-10-30T04:15:57.189Z,13.73
2022-10-30T04:18:29.129Z,13.72
2022-10-30T04:21:00.857Z,13.79
2022-10-30T04:23:32.252Z,13.78
2022-10-30T04:26:03.596Z,13.82
2022-10-30T04:28:34.915Z,13.81
2022-10-30T04:31:06.227Z,13.87
2022-10-30T04:33:37.486Z,13.87
2022-10-30T04:36:08.953Z,13.85
2022-10-30T04:38:40.278Z,13.90
2022-10-30T04:41:11.528Z,13.90
2022-10-30T04:43:42.809Z,13.91
2022-10-30T04:46:14.085Z,13.92
2022-10-30T04:48:45.472Z,13.93
2022-10-30T04:51:16.734Z,13.92
2022-10-30T04:53:48.028Z,13.93
2022-10-30T04:56:19.384Z,13.87
2022-10-30T04:58:50.622Z,13.91
2022-10-30T05:01:22.184Z,13.94
2022-10-30T05:03:54.818Z,13.94
2022-10-30T05:06:28.168Z,13.96
2022-10-30T05:08:59.608Z,13.91
2022-10-30T05:11:30.937Z,13.89
2022-10-30T05:14:02.223Z,13.93
2022-10-30T05:16:33.631Z,13.94
2022-10-30T05:19:04.890Z,13.91
2022-10-30T05:21:36.409Z,13.82
2022-10-30T05:24:08.179Z,13.87
2022-10-30T05:26:39.523Z,13.84
2022-10-30T05:29:10.785Z,13.81
2022-10-30T05:31:42.053Z,13.78
2022-10-30T05:34:13.326Z,13.69
2022-10-30T05:36:44.597Z,13.72
2022-10-30T05:39:15.921Z,13.68
2022-10-30T05:41:47.273Z,13.62
2022-10-30T05:44:34.292Z,13.56
2022-10-30T05:47:11.333Z,13.57
2022-10-30T05:49:42.591Z,13.52
2022-10-30T05:52:13.987Z,13.47
2022-10-30T05:54:45.301Z,13.42
2022-10-30T05:57:16.574Z,13.38
2022-10-30T05:59:47.823Z,13.35
2022-10-30T06:02:19.204Z,13.30
2022-10-30T06:04:50.524Z,13.23
2022-10-30T06:07:21.861Z,13.26
2022-10-30T06:09:53.125Z,13.18
2022-10-30T06:12:24.501Z,13.20
2022-10-30T06:14:55.745Z,13.13
2022-10-30T06:17:30.537Z,13.10
2022-10-30T06:20:01.775Z,13.15
2022-10-30T06:22:33.024Z,13.13
2022-10-30T06:25:04.709Z,13.06
2022-10-30T06:27:36.182Z,13.03
2022-10-30T06:30:07.997Z,13.09
2022-10-30T06:32:39.269Z,13.08
2022-10-30T06:35:10.679Z,13.07
2022-10-30T06:37:47.430Z,13.06
2022-10-30T06:40:19.288Z,13.04
2022-10-30T06:42:52.526Z,13.02
2022-10-30T06:45:24.903Z,13.01
2022-10-30T06:47:56.499Z,13.01
2022-10-30T06:50:28.123Z,13.01
2022-10-30T06:52:59.524Z,12.95
2022-10-30T06:55:30.845Z,13.01
2022-10-30T06:58:02.548Z,13.02
2022-10-30T07:00:34.103Z,13.03
2022-10-30T07:03:06.552Z,13.04
2022-10-30T07:05:37.903Z,13.05
2022-10-30T07:08:09.264Z,13.09
2022-10-30T07:10:40.581Z,13.10
2022-10-30T07:13:11.928Z,13.16
2022-10-30T07:15:43.976Z,13.15
2022-10-30T07:18:15.400Z,13.21
2022-10-30T07:20:46.739Z,13.28
2022-10-30T07:23:17.981Z,13.33
2022-10-30T07:25:49.444Z,13.39
2022-10-30T07:28:20.800Z,13.45
2022-10-30T07:30:52.140Z,13.50
2022-10-30T07:33:23.433Z,13.60
2022-10-30T07:35:54.762Z,13.75
2022-10-30T07:38:26.046Z,13.87
2022-10-30T07:40:57.292Z,14.01
2022-10-30T07:43:28.538Z,14.16
2022-10-30T07:45:59.803Z,14.32
2022-10-30T07:48:31.071Z,14.53
2022-10-30T07:51:02.461Z,14.79
2022-10-30T07:53:33.746Z,14.99
2022-10-30T07:56:05.220Z,15.22
2022-10-30T07:58:42.694Z,15.44
2022-10-30T08:01:16.508Z,15.66
2022-10-30T08:03:47.846Z,15.85
2022-10-30T08:06:22.944Z,16.02
2022-10-30T08:08:57.616Z,16.18
2022-10-30T08:11:28.950Z,16.33
2022-10-30T08:14:00.375Z,16.43
2022-10-30T08:16:31.665Z,16.59
2022-10-30T08:19:02.953Z,16.65
2022-10-30T08:21:34.233Z,16.82
2022-10-30T08:24:05.828Z,16.96
2022-10-30T08:26:37.168Z,17.07
2022-10-30T08:29:08.558Z,17.18
2022-10-30T08:31:39.822Z,17.31
2022-10-30T08:34:11.074Z,17.42
2022-10-30T08:36:46.728Z,17.54
2022-10-30T08:39:21.036Z,17.63
2022-10-30T08:41:52.313Z,17.70
2022-10-30T08:44:23.567Z,17.77
2022-10-30T08:46:54.931Z,17.86
2022-10-30T08:49:26.268Z,17.96
2022-10-30T08:51:57.528Z,18.06
2022-10-30T08:54:28.851Z,18.15
2022-10-30T08:57:00.212Z,18.24
2022-10-30T08:59:31.584Z,18.34
2022-10-30T09:02:02.928Z,18.45
2022-10-30T09:04:34.282Z,18.55
2022-10-30T09:07:07.629Z,18.59
2022-10-30T09:09:41.607Z,18.71
2022-10-30T09:12:12.865Z,18.81
2022-10-30T09:14:44.146Z,18.87
2022-10-30T09:17:15.411Z,18.98
2022-10-30T09:22:22.941Z,19.07
2022-10-30T09:24:54.331Z,19.20
2022-10-30T09:27:35.973Z,19.30
2022-10-30T09:30:08.105Z,19.40
2022-10-30T09:32:39.919Z,19.42
2022-10-30T09:35:11.320Z,19.49
2022-10-30T09:37:42.710Z,19.61
2022-10-30T09:40:34.597Z,19.64
2022-10-30T09:43:44.123Z,19.81
2022-10-30T09:47:09.336Z,19.92
2022-10-30T09:49:54.350Z,19.98
2022-10-30T09:53:03.643Z,20.05
2022-10-30T09:55:49.877Z,20.13
2022-10-30T09:58:55.081Z,20.26
2022-10-30T10:01:40.178Z,20.35
2022-10-30T10:04:40.029Z,20.42
2022-10-30T10:07:48.999Z,20.42
2022-10-30T10:10:35.609Z,20.50
2022-10-30T10:13:40.991Z,20.59
2022-10-30T10:16:20.712Z,20.69
2022-10-30T10:19:15.612Z,20.74
2022-10-30T10:22:01.094Z,20.81
2022-10-30T10:24:36.317Z,20.85
2022-10-30T10:27:17.020Z,20.92
2022-10-30T10:30:06.572Z,20.97
2022-10-30T10:33:14.871Z,21.11
2022-10-30T10:36:17.587Z,21.20
2022-10-30T10:39:16.484Z,21.29
2022-10-30T10:41:59.048Z,21.38
2022-10-30T10:44:46.436Z,21.49
2022-10-30T10:47:38.961Z,21.58
2022-10-30T10:50:34.348Z,21.70
2022-10-30T10:53:15.238Z,21.75
2022-10-30T10:55:51.251Z,21.75
2022-10-30T10:58:44.675Z,21.80
2022-10-30T11:01:24.452Z,21.84
2022-10-30T11:04:21.876Z,21.95
2022-10-30T11:06:55.829Z,22.01
2022-10-30T11:09:28.316Z,22.05
2022-10-30T11:11:59.632Z,22.13
2022-10-30T11:14:30.969Z,22.15
2022-10-30T11:17:27.013Z,22.25
2022-10-30T11:20:02.884Z,22.28
2022-10-30T11:22:39.892Z,22.28
2022-10-30T11:25:25.283Z,22.29
2022-10-30T11:28:03.475Z,22.33
2022-10-30T11:30:34.789Z,22.39
2022-10-30T11:33:22.108Z,22.40
2022-10-30T11:35:53.391Z,22.45
2022-10-30T11:38:27.105Z,22.44
2022-10-30T11:41:01.764Z,22.49
2022-10-30T11:43:33.089Z,22.50
2022-10-30T11:46:09.446Z,22.56
2022-10-30T11:48:44.411Z,22.60
2022-10-30T11:51:31.576Z,22.62
2022-10-30T11:54:04.403Z,22.60
2022-10-30T11:56:36.343Z,22.57
2022-10-30T11:59:18.949Z,22.54
2022-10-30T12:02:03.847Z,22.49
2022-10-30T12:04:35.559Z,22.44
2022-10-30T12:07:08.833Z,22.45
2022-10-30T12:09:45.134Z,22.47
2022-10-30T12:12:19.176Z,22.52
2022-10-30T12:14:52.411Z,22.54
2022-10-30T12:17:23.837Z,22.49
2022-10-30T12:19:57.280Z,22.50
2022-10-30T12:22:34.136Z,22.48
2022-10-30T12:25:28.092Z,22.47
2022-10-30T12:28:04.571Z,22.51
2022-10-30T12:30:49.728Z,22.48
2022-10-30T12:33:36.552Z,22.49
2022-10-30T12:36:15.585Z,22.49
2022-10-30T12:38:57.987Z,22.41
2022-10-30T12:41:58.371Z,22.57
2022-10-30T12:44:51.744Z,22.64
2022-10-30T12:47:45.766Z,22.75
2022-10-30T12:50:26.633Z,22.81
2022-10-30T12:53:06.728Z,22.86
2022-10-30T12:55:47.936Z,22.86
2022-10-30T12:58:28.084Z,22.92
2022-10-30T13:01:34.700Z,23.00
2022-10-30T13:04:31.951Z,23.02
2022-10-30T13:07:24.664Z,23.07
2022-10-30T13:10:06.542Z,23.09
2022-10-30T13:12:40.888Z,23.03
2022-10-30T13:15:41.885Z,23.01
2022-10-30T13:18:22.119Z,23.01
2022-10-30T13:21:17.902Z,23.01
2022-10-30T13:23:57.973Z,23.01
2022-10-30T13:26:41.551Z,22.98
2022-10-30T13:29:26.642Z,22.96
2022-10-30T13:32:11.716Z,22.95
2022-10-30T13:34:55.528Z,22.95
2022-10-30T13:37:45.244Z,22.95
2022-10-30T13:40:31.615Z,22.96
2022-10-30T13:43:40.129Z,23.01
2022-10-30T13:46:21.657Z,23.04
2022-10-30T13:48:58.869Z,23.03
2022-10-30T13:51:39.739Z,23.04
2022-10-30T13:54:13.847Z,23.03
2022-10-30T13:56:47.240Z,23.02
2022-10-30T13:59:39.797Z,23.01
2022-10-30T14:03:03.107Z,22.97
2022-10-30T14:06:13.648Z,22.92
2022-10-30T14:09:14.129Z,22.86
2022-10-30T14:11:45.469Z,22.82
2022-10-30T14:14:30.002Z,22.80
2022-10-30T14:17:14.653Z,22.77
2022-10-30T14:20:08.727Z,22.71
2022-10-30T14:22:43.734Z,22.64
2022-10-30T14:25:16.224Z,22.57
2022-10-30T14:27:55.842Z,22.41
2022-10-30T14:30:28.665Z,22.33
2022-10-30T14:33:00.045Z,22.27
2022-10-30T14:35:37.404Z,22.14
2022-10-30T14:38:08.688Z,22.04
2022-10-30T14:40:45.616Z,21.93
2022-10-30T14:43:38.524Z,21.81
2022-10-30T14:46:19.626Z,21.60
2022-10-30T14:49:27.723Z,21.52
2022-10-30T14:52:17.057Z,21.36
2022-10-30T14:54:56.879Z,21.23
2022-10-30T14:57:52.078Z,21.01
2022-10-30T15:00:23.522Z,20.90
2022-10-30T15:02:57.824Z,20.77
2022-10-30T15:05:43.093Z,20.64
2022-10-30T15:08:30.082Z,20.50
2022-10-30T15:11:19.484Z,20.35
2022-10-30T15:14:01.420Z,20.21
2022-10-30T15:16:38.595Z,20.04
2022-10-30T15:19:14.534Z,19.95
2022-10-30T15:21:48.431Z,19.85
2022-10-30T15:24:26.927Z,19.69
2022-10-30T15:27:02.328Z,19.50
2022-10-30T15:29:37.052Z,19.41
2022-10-30T15:32:18.710Z,19.29
2022-10-30T15:34:55.064Z,19.14
2022-10-30T15:37:27.388Z,19.00
2022-10-30T15:40:18.703Z,18.82
2022-10-30T15:42:52.210Z,18.56
2022-10-30T15:45:28.685Z,18.53
2022-10-30T15:48:15.253Z,18.42
2022-10-30T15:51:14.802Z,18.31
2022-10-30T15:53:51.120Z,18.20
2022-10-30T15:57:08.397Z,18.09
2022-10-30T15:59:35.279Z,17.96
2022-10-30T16:02:23.872Z,17.87
2022-10-30T16:04:55.443Z,17.78
2022-10-30T16:07:29.128Z,17.70
2022-10-30T16:10:02.731Z,17.60
2022-10-30T16:12:35.072Z,17.53
2022-10-30T16:15:30.815Z,17.45
2022-10-30T16:18:16.870Z,17.36
2022-10-30T16:20:54.047Z,17.27
2022-10-30T16:23:25.499Z,17.20
2022-10-30T16:25:58.978Z,17.12
2022-10-30T16:28:34.107Z,17.05
2022-10-30T16:31:08.127Z,16.92
2022-10-30T16:33:41.253Z,16.86
2022-10-30T16:36:16.866Z,16.80
2022-10-30T16:38:49.708Z,16.73
2022-10-30T16:41:26.561Z,16.60
2022-10-30T16:44:14.872Z,16.51
2022-10-30T16:46:50.812Z,16.48
2022-10-30T16:49:23.757Z,16.41
2022-10-30T16:52:06.311Z,16.29
2022-10-30T16:54:40.876Z,16.21
2022-10-30T16:57:22.343Z,16.11
2022-10-30T16:59:55.320Z,16.10
2022-10-30T17:02:30.221Z,16.06
2022-10-30T17:05:18.925Z,15.98
2022-10-30T17:07:59.114Z,15.95
2022-10-30T17:10:33.740Z,15.89
2022-10-30T17:13:29.704Z,15.85
2022-10-30T17:16:25.944Z,15.78
2022-10-30T17:19:21.502Z,15.69
2022-10-30T17:21:53.188Z,15.65
2022-10-30T17:24:36.352Z,15.60
2022-10-30T17:27:27.167Z,15.56
2022-10-30T17:29:58.505Z,15.49
2022-10-30T17:32:54.211Z,15.44
2022-10-30T17:35:25.579Z,15.38
2022-10-30T17:37:59.797Z,15.33
2022-10-30T17:40:34.051Z,15.27
2022-10-30T17:43:05.352Z,15.22
2022-10-30T17:45:36.633Z,15.19
2022-10-30T17:48:16.426Z,15.14
2022-10-30T17:50:47.763Z,15.05
2022-10-30T17:53:21.803Z,15.06
2022-10-30T17:56:00.478Z,14.96
2022-10-30T17:58:31.823Z,14.96
2022-10-30T18:01:03.186Z,14.97
2022-10-30T18:03:34.636Z,14.95
2022-10-30T18:06:10.856Z,14.91
2022-10-30T18:08:45.078Z,14.85
2022-10-30T18:11:21.704Z,14.86
2022-10-30T18:13:55.747Z,14.83
2022-10-30T18:16:27.578Z,14.77
2022-10-30T18:18:58.871Z,14.75
2022-10-30T18:21:31.239Z,14.74
2022-10-30T18:24:02.552Z,14.68
2022-10-30T18:26:37.755Z,14.71
2022-10-30T18:29:12.421Z,14.67
2022-10-30T18:31:43.670Z,14.66
2022-10-30T18:34:18.170Z,14.63
2022-10-30T18:36:49.746Z,14.61
2022-10-30T18:39:20.996Z,14.56
2022-10-30T18:41:53.622Z,14.51
2022-10-30T18:44:24.869Z,14.44
2022-10-30T18:47:01.641Z,14.44
2022-10-30T18:49:34.315Z,14.35
2022-10-30T18:52:05.575Z,14.30
2022-10-30T18:54:36.908Z,14.23
2022-10-30T18:57:08.209Z,14.25
2022-10-30T18:59:39.565Z,14.20
2022-10-30T19:02:22.718Z,14.15
2022-10-30T19:04:54.063Z,14.11
2022-10-30T19:07:25.341Z,14.07
2022-10-30T19:09:59.386Z,14.02
2022-10-30T19:12:30.731Z,14.00
2022-10-30T19:15:02.028Z,13.95
2022-10-30T19:17:33.280Z,13.88
2022-10-30T19:20:04.918Z,13.87
2022-10-30T19:22:36.446Z,13.82
2022-10-30T19:25:17.023Z,13.79
2022-10-30T19:27:48.549Z,13.75
2022-10-30T19:30:21.283Z,13.67
2022-10-30T19:32:52.634Z,13.68
2022-10-30T19:35:27.008Z,13.64
2022-10-30T19:37:58.845Z,13.58
2022-10-30T19:40:34.608Z,13.54
2022-10-30T19:43:07.066Z,13.51
2022-10-30T19:45:38.384Z,13.47
2022-10-30T19:48:24.716Z,13.43
2022-10-30T19:51:09.121Z,13.39
2022-10-30T19:53:40.965Z,13.34
2022-10-30T19:56:14.741Z,13.30
2022-10-30T19:58:46.019Z,13.27
2022-10-30T20:01:17.530Z,13.20
2022-10-30T20:03:49.017Z,13.17
2022-10-30T20:06:21.295Z,13.13
2022-10-30T20:08:52.638Z,13.09
2022-10-30T20:11:24.249Z,13.05
2022-10-30T20:13:55.508Z,13.00
2022-10-30T20:16:27.009Z,12.95
2022-10-30T20:18:58.359Z,12.92
2022-10-30T20:21:30.844Z,12.82
2022-10-30T20:24:02.099Z,12.79
2022-10-30T20:26:33.428Z,12.80
2022-10-30T20:29:04.697Z,12.75
2022-10-30T20:31:36.081Z,12.73
2022-10-30T20:34:07.347Z,12.70
2022-10-30T20:36:38.628Z,12.67
2022-10-30T20:39:11.652Z,12.64
2022-10-30T20:41:43.011Z,12.61
2022-10-30T20:44:14.282Z,12.61
2022-10-30T20:46:46.214Z,12.58
2022-10-30T20:49:18.485Z,12.54
2022-10-30T20:51:49.979Z,12.49
2022-10-30T20:54:21.254Z,12.49
2022-10-30T20:56:52.581Z,12.38
2022-10-30T20:59:23.965Z,12.41
2022-10-30T21:01:55.451Z,12.37
2022-10-30T21:04:26.911Z,12.36
2022-10-30T21:06:58.167Z,12.35
2022-10-30T21:09:29.524Z,12.30
2022-10-30T21:12:00.800Z,12.24
2022-10-30T21:14:32.139Z,12.19
2022-10-30T21:17:03.504Z,12.17
2022-10-30T21:19:35.144Z,12.17
2022-10-30T21:22:06.439Z,12.10
2022-10-30T21:24:37.866Z,12.07
2022-10-30T21:27:09.138Z,12.02
2022-10-30T21:29:40.413Z,12.06
2022-10-30T21:32:14.756Z,11.98
2022-10-30T21:34:46.017Z,12.00
2022-10-30T21:37:17.308Z,11.97
2022-10-30T21:39:48.654Z,11.93
2022-10-30T21:42:20.129Z,11.88
2022-10-30T21:44:51.444Z,11.90
2022-10-30T21:47:22.742Z,11.86
2022-10-30T21:49:54.051Z,11.83
2022-10-30T21:52:25.315Z,11.79
2022-10-30T21:54:56.558Z,11.76
2022-10-30T21:57:28.794Z,11.72
2022-10-30T22:00:03.430Z,11.70
2022-10-30T22:02:38.483Z,11.68
2022-10-30T22:05:09.737Z,11.59
2022-10-30T22:07:41.000Z,11.63
2022-10-30T22:10:12.262Z,11.57
2022-10-30T22:12:43.552Z,11.61
2022-10-30T22:15:14.887Z,11.59
2022-10-30T22:17:46.169Z,11.59
2022-10-30T22:20:17.440Z,11.59
2022-10-30T22:22:48.748Z,11.53
2022-10-30T22:25:20.260Z,11.58
2022-10-30T22:27:51.516Z,11.44
2022-10-30T22:30:22.780Z,11.56
2022-10-30T22:32:54.129Z,11.55
2022-10-30T22:35:25.391Z,11.55
2022-10-30T22:37:57.580Z,11.53
2022-10-30T22:40:28.928Z,11.52
2022-10-30T22:43:00.545Z,11.50
2022-10-30T22:45:32.367Z,11.46
2022-10-30T22:48:03.858Z,11.44
2022-10-30T22:50:36.843Z,11.43
2022-10-30T22:53:08.095Z,11.40
2022-10-30T22:55:39.365Z,11.38
2022-10-30T22:58:10.692Z,11.33
2022-10-30T23:00:41.992Z,11.31
2022-10-30T23:03:14.031Z,11.27
2022-10-30T23:05:45.365Z,11.33
2022-10-30T23:08:16.636Z,11.35
2022-10-30T23:10:54.984Z,11.30
2022-10-30T23:13:26.363Z,11.37
2022-10-30T23:16:06.019Z,11.38
2022-10-30T23:18:37.296Z,11.37
2022-10-30T23:21:20.743Z,11.38
2022-10-30T23:23:52.604Z,11.37
2022-10-30T23:26:30.306Z,11.36
2022-10-30T23:29:02.435Z,11.37
2022-10-30T23:31:35.644Z,11.38
2022-10-30T23:34:12.357Z,11.38
2022-10-30T23:36:44.608Z,11.39
2022-10-30T23:39:17.789Z,11.37
2022-10-30T23:41:49.102Z,11.44
2022-10-30T23:44:20.364Z,11.39
2022-10-30T23:46:51.625Z,11.47
2022-10-30T23:49:22.874Z,11.50
2022-10-30T23:51:54.156Z,11.52
2022-10-30T23:54:25.400Z,11.54
2022-10-30T23:56:56.757Z,11.53
2022-10-30T23:59:28.035Z,11.59
